sensor_id;sensor_type;location;lat;lon;timestamp;pressure;altitude;pressure_sealevel;temperature
37414;BMP280;23279;46.472;30.760;2023-09-19T00:01:06;77834.50;;;-146.33
37414;BMP280;23279;46.472;30.760;2023-09-19T00:03:35;77791.78;;;-146.33
37414;BMP280;23279;46.472;30.760;2023-09-19T00:06:03;77738.88;;;-146.33
37414;BMP280;23279;46.472;30.760;2023-09-19T00:08:30;77747.00;;;-146.33
37414;BMP280;23279;46.472;30.760;2023-09-19T00:10:56;77751.06;;;-146.33
37414;BMP280;23279;46.472;30.760;2023-09-19T00:13:21;77742.94;;;-146.33
37414;BMP280;23279;46.472;30.760;2023-09-19T00:15:48;77742.94;;;-146.33
37414;BMP280;23279;46.472;30.760;2023-09-19T00:18:14;77740.91;;;-146.33
37414;BMP280;23279;46.472;30.760;2023-09-19T00:20:41;77690.03;;;-146.33
37414;BMP280;23279;46.472;30.760;2023-09-19T00:23:08;77690.03;;;-146.33
37414;BMP280;23279;46.472;30.760;2023-09-19T00:25:34;77726.66;;;-146.33
37414;BMP280;23279;46.472;30.760;2023-09-19T00:28:01;77726.66;;;-146.33
37414;BMP280;23279;46.472;30.760;2023-09-19T00:30:26;77720.56;;;-146.33
37414;BMP280;23279;46.472;30.760;2023-09-19T00:32:52;77749.03;;;-146.33
37414;BMP280;23279;46.472;30.760;2023-09-19T00:35:18;77783.63;;;-146.33
37414;BMP280;23279;46.472;30.760;2023-09-19T00:37:50;77781.59;;;-146.33
37414;BMP280;23279;46.472;30.760;2023-09-19T00:40:15;77773.44;;;-146.33
37414;BMP280;23279;46.472;30.760;2023-09-19T00:42:42;77755.16;;;-146.33
37414;BMP280;23279;46.472;30.760;2023-09-19T00:45:09;77755.16;;;-146.33
37414;BMP280;23279;46.472;30.760;2023-09-19T00:47:40;77730.72;;;-146.33
37414;BMP280;23279;46.472;30.760;2023-09-19T00:50:08;77749.03;;;-146.33
37414;BMP280;23279;46.472;30.760;2023-09-19T00:52:34;77720.56;;;-146.33
37414;BMP280;23279;46.472;30.760;2023-09-19T00:55:02;77722.59;;;-146.33
37414;BMP280;23279;46.472;30.760;2023-09-19T00:57:29;77702.25;;;-146.33
37414;BMP280;23279;46.472;30.760;2023-09-19T00:59:55;77681.88;;;-146.33
37414;BMP280;23279;46.472;30.760;2023-09-19T01:02:21;77637.13;;;-146.33
37414;BMP280;23279;46.472;30.760;2023-09-19T01:04:47;77584.22;;;-146.33
37414;BMP280;23279;46.472;30.760;2023-09-19T01:07:12;77551.69;;;-146.33
37414;BMP280;23279;46.472;30.760;2023-09-19T01:09:40;77563.88;;;-146.33
37414;BMP280;23279;46.472;30.760;2023-09-19T01:12:06;77547.59;;;-146.33
37414;BMP280;23279;46.472;30.760;2023-09-19T01:17:25;77551.69;;;-146.33
37414;BMP280;23279;46.472;30.760;2023-09-19T01:20:15;77557.78;;;-146.33
37414;BMP280;23279;46.472;30.760;2023-09-19T01:23:00;77506.91;;;-146.33
37414;BMP280;23279;46.472;30.760;2023-09-19T01:30:42;77466.22;;;-146.33
37414;BMP280;23279;46.472;30.760;2023-09-19T01:33:09;77478.44;;;-146.33
37414;BMP280;23279;46.472;30.760;2023-09-19T01:35:37;77462.16;;;-146.33
37414;BMP280;23279;46.472;30.760;2023-09-19T01:38:07;77417.41;;;-146.33
37414;BMP280;23279;46.472;30.760;2023-09-19T01:40:47;77441.81;;;-146.33
37414;BMP280;23279;46.472;30.760;2023-09-19T01:43:26;77506.91;;;-146.33
37414;BMP280;23279;46.472;30.760;2023-09-19T01:46:08;77527.25;;;-146.33
37414;BMP280;23279;46.472;30.760;2023-09-19T01:48:43;77539.47;;;-146.33
37414;BMP280;23279;46.472;30.760;2023-09-19T01:51:20;77547.59;;;-146.33
37414;BMP280;23279;46.472;30.760;2023-09-19T01:53:55;77559.81;;;-146.33
37414;BMP280;23279;46.472;30.760;2023-09-19T01:56:33;77594.41;;;-146.33
37414;BMP280;23279;46.472;30.760;2023-09-19T01:59:05;77606.63;;;-146.33
37414;BMP280;23279;46.472;30.760;2023-09-19T02:01:32;77669.69;;;-146.33
37414;BMP280;23279;46.472;30.760;2023-09-19T02:03:58;77759.22;;;-146.33
37414;BMP280;23279;46.472;30.760;2023-09-19T02:06:24;77803.97;;;-146.33
37414;BMP280;23279;46.472;30.760;2023-09-19T02:08:52;77856.88;;;-146.33
37414;BMP280;23279;46.472;30.760;2023-09-19T02:11:18;77885.38;;;-146.33
37414;BMP280;23279;46.472;30.760;2023-09-19T02:13:44;77944.38;;;-146.33
37414;BMP280;23279;46.472;30.760;2023-09-19T02:16:10;77950.47;;;-146.33
37414;BMP280;23279;46.472;30.760;2023-09-19T02:18:36;77983.03;;;-146.33
37414;BMP280;23279;46.472;30.760;2023-09-19T02:21:02;77954.56;;;-146.33
37414;BMP280;23279;46.472;30.760;2023-09-19T02:23:29;77938.28;;;-146.33
37414;BMP280;23279;46.472;30.760;2023-09-19T02:25:55;77917.94;;;-146.33
37414;BMP280;23279;46.472;30.760;2023-09-19T02:28:23;77954.56;;;-146.33
37414;BMP280;23279;46.472;30.760;2023-09-19T02:30:48;77972.88;;;-146.33
37414;BMP280;23279;46.472;30.760;2023-09-19T02:33:14;78003.38;;;-146.33
37414;BMP280;23279;46.472;30.760;2023-09-19T02:35:40;78011.53;;;-146.33
37414;BMP280;23279;46.472;30.760;2023-09-19T02:38:05;78040.03;;;-146.33
37414;BMP280;23279;46.472;30.760;2023-09-19T02:40:33;78037.97;;;-146.33
37414;BMP280;23279;46.472;30.760;2023-09-19T02:43:01;78037.97;;;-146.33
37414;BMP280;23279;46.472;30.760;2023-09-19T02:45:27;78029.84;;;-146.33
37414;BMP280;23279;46.472;30.760;2023-09-19T02:47:53;78054.25;;;-146.33
37414;BMP280;23279;46.472;30.760;2023-09-19T02:50:20;78058.34;;;-146.33
37414;BMP280;23279;46.472;30.760;2023-09-19T02:52:46;78060.38;;;-146.33
37414;BMP280;23279;46.472;30.760;2023-09-19T02:55:18;78052.22;;;-146.33
37414;BMP280;23279;46.472;30.760;2023-09-19T02:57:48;78048.16;;;-146.33
37414;BMP280;23279;46.472;30.760;2023-09-19T03:00:15;78035.94;;;-146.33
37414;BMP280;23279;46.472;30.760;2023-09-19T03:02:41;78048.16;;;-146.33
37414;BMP280;23279;46.472;30.760;2023-09-19T03:05:07;78052.22;;;-146.33
37414;BMP280;23279;46.472;30.760;2023-09-19T03:07:33;78050.19;;;-146.33
37414;BMP280;23279;46.472;30.760;2023-09-19T03:10:01;78070.53;;;-146.33
37414;BMP280;23279;46.472;30.760;2023-09-19T03:12:28;78066.47;;;-146.33
37414;BMP280;23279;46.472;30.760;2023-09-19T03:14:54;78097.00;;;-146.33
37414;BMP280;23279;46.472;30.760;2023-09-19T03:17:22;78084.78;;;-146.33
37414;BMP280;23279;46.472;30.760;2023-09-19T03:19:48;78097.00;;;-146.33
37414;BMP280;23279;46.472;30.760;2023-09-19T03:22:16;78111.25;;;-146.33
37414;BMP280;23279;46.472;30.760;2023-09-19T03:24:43;78127.53;;;-146.33
37414;BMP280;23279;46.472;30.760;2023-09-19T03:27:12;78153.97;;;-146.33
37414;BMP280;23279;46.472;30.760;2023-09-19T03:29:41;78182.47;;;-146.33
37414;BMP280;23279;46.472;30.760;2023-09-19T03:32:07;78202.81;;;-146.33
37414;BMP280;23279;46.472;30.760;2023-09-19T03:34:36;78208.91;;;-146.33
37414;BMP280;23279;46.472;30.760;2023-09-19T03:37:02;78202.81;;;-146.33
37414;BMP280;23279;46.472;30.760;2023-09-19T03:39:28;78215.03;;;-146.33
37414;BMP280;23279;46.472;30.760;2023-09-19T03:41:54;78208.91;;;-146.33
37414;BMP280;23279;46.472;30.760;2023-09-19T03:44:19;78217.06;;;-146.33
37414;BMP280;23279;46.472;30.760;2023-09-19T03:46:45;78210.97;;;-146.33
37414;BMP280;23279;46.472;30.760;2023-09-19T03:49:10;78219.09;;;-146.33
37414;BMP280;23279;46.472;30.760;2023-09-19T03:51:35;78215.03;;;-146.33
37414;BMP280;23279;46.472;30.760;2023-09-19T03:54:02;78219.09;;;-146.33
37414;BMP280;23279;46.472;30.760;2023-09-19T03:56:29;78196.72;;;-146.33
37414;BMP280;23279;46.472;30.760;2023-09-19T03:58:54;78198.75;;;-146.33
37414;BMP280;23279;46.472;30.760;2023-09-19T04:01:20;78194.69;;;-146.33
37414;BMP280;23279;46.472;30.760;2023-09-19T04:03:45;78202.81;;;-146.33
37414;BMP280;23279;46.472;30.760;2023-09-19T04:06:13;78190.59;;;-146.33
37414;BMP280;23279;46.472;30.760;2023-09-19T04:08:39;78192.66;;;-146.33
37414;BMP280;23279;46.472;30.760;2023-09-19T04:11:04;78196.72;;;-146.33
37414;BMP280;23279;46.472;30.760;2023-09-19T04:13:30;78170.25;;;-146.33
37414;BMP280;23279;46.472;30.760;2023-09-19T04:15:55;78166.19;;;-146.33
37414;BMP280;23279;46.472;30.760;2023-09-19T04:18:21;78156.00;;;-146.33
37414;BMP280;23279;46.472;30.760;2023-09-19T04:20:51;78137.69;;;-146.33
37414;BMP280;23279;46.472;30.760;2023-09-19T04:23:17;78127.53;;;-146.33
37414;BMP280;23279;46.472;30.760;2023-09-19T04:25:45;78105.13;;;-146.33
37414;BMP280;23279;46.472;30.760;2023-09-19T04:28:10;78080.72;;;-146.33
37414;BMP280;23279;46.472;30.760;2023-09-19T04:30:39;78086.81;;;-146.33
37414;BMP280;23279;46.472;30.760;2023-09-19T04:33:07;78076.66;;;-146.33
37414;BMP280;23279;46.472;30.760;2023-09-19T04:35:33;78056.28;;;-146.33
37414;BMP280;23279;46.472;30.760;2023-09-19T04:38:00;78031.88;;;-146.33
37414;BMP280;23279;46.472;30.760;2023-09-19T04:40:25;77995.25;;;-146.33
37414;BMP280;23279;46.472;30.760;2023-09-19T04:42:57;77997.28;;;-146.33
37414;BMP280;23279;46.472;30.760;2023-09-19T04:45:27;77948.44;;;-146.33
37414;BMP280;23279;46.472;30.760;2023-09-19T04:47:53;77922.00;;;-146.33
37414;BMP280;23279;46.472;30.760;2023-09-19T04:50:19;77913.84;;;-146.33
37414;BMP280;23279;46.472;30.760;2023-09-19T04:52:49;77901.66;;;-146.33
37414;BMP280;23279;46.472;30.760;2023-09-19T04:55:16;77877.22;;;-146.33
37414;BMP280;23279;46.472;30.760;2023-09-19T04:57:43;77860.94;;;-146.33
37414;BMP280;23279;46.472;30.760;2023-09-19T05:00:13;77852.81;;;-146.33
37414;BMP280;23279;46.472;30.760;2023-09-19T05:02:40;77840.59;;;-146.33
37414;BMP280;23279;46.472;30.760;2023-09-19T05:05:09;77820.25;;;-146.33
37414;BMP280;23279;46.472;30.760;2023-09-19T05:07:42;77795.84;;;-146.33
37414;BMP280;23279;46.472;30.760;2023-09-19T05:10:08;77808.03;;;-146.33
37414;BMP280;23279;46.472;30.760;2023-09-19T05:12:38;77808.03;;;-146.33
37414;BMP280;23279;46.472;30.760;2023-09-19T05:15:07;77812.13;;;-146.33
37414;BMP280;23279;46.472;30.760;2023-09-19T05:17:34;77808.03;;;-146.33
37414;BMP280;23279;46.472;30.760;2023-09-19T05:20:00;77775.50;;;-146.33
37414;BMP280;23279;46.472;30.760;2023-09-19T05:22:36;77698.16;;;-146.33
37414;BMP280;23279;46.472;30.760;2023-09-19T05:25:05;77657.47;;;-146.33
37414;BMP280;23279;46.472;30.760;2023-09-19T05:27:31;77639.16;;;-146.33
37414;BMP280;23279;46.472;30.760;2023-09-19T05:29:56;77635.09;;;-146.33
37414;BMP280;23279;46.472;30.760;2023-09-19T05:32:21;77600.50;;;-146.33
37414;BMP280;23279;46.472;30.760;2023-09-19T05:34:47;77563.88;;;-146.33
37414;BMP280;23279;46.472;30.760;2023-09-19T05:37:13;77551.69;;;-146.33
37414;BMP280;23279;46.472;30.760;2023-09-19T05:39:41;77535.41;;;-146.33
37414;BMP280;23279;46.472;30.760;2023-09-19T05:42:07;77563.88;;;-146.33
37414;BMP280;23279;46.472;30.760;2023-09-19T05:44:33;77572.03;;;-146.33
37414;BMP280;23279;46.472;30.760;2023-09-19T05:46:58;77559.81;;;-146.33
37414;BMP280;23279;46.472;30.760;2023-09-19T05:49:24;77582.19;;;-146.33
37414;BMP280;23279;46.472;30.760;2023-09-19T05:51:50;77608.66;;;-146.33
37414;BMP280;23279;46.472;30.760;2023-09-19T05:54:22;77576.09;;;-146.33
37414;BMP280;23279;46.472;30.760;2023-09-19T05:56:48;77612.72;;;-146.33
37414;BMP280;23279;46.472;30.760;2023-09-19T05:59:14;77645.28;;;-146.33
37414;BMP280;23279;46.472;30.760;2023-09-19T06:01:44;77639.16;;;-146.33
37414;BMP280;23279;46.472;30.760;2023-09-19T06:04:09;77690.03;;;-146.33
37414;BMP280;23279;46.472;30.760;2023-09-19T06:06:35;77722.59;;;-146.33
37414;BMP280;23279;46.472;30.760;2023-09-19T06:09:04;77738.88;;;-146.33
37414;BMP280;23279;46.472;30.760;2023-09-19T06:11:31;77791.78;;;-146.33
37414;BMP280;23279;46.472;30.760;2023-09-19T06:14:01;77795.84;;;-146.33
37414;BMP280;23279;46.472;30.760;2023-09-19T06:16:28;77812.13;;;-146.33
37414;BMP280;23279;46.472;30.760;2023-09-19T06:18:54;77816.19;;;-146.33
37414;BMP280;23279;46.472;30.760;2023-09-19T06:21:21;77820.25;;;-146.33
37414;BMP280;23279;46.472;30.760;2023-09-19T06:23:47;77816.19;;;-146.33
37414;BMP280;23279;46.472;30.760;2023-09-19T06:26:12;77838.56;;;-146.33
37414;BMP280;23279;46.472;30.760;2023-09-19T06:28:38;77834.50;;;-146.33
37414;BMP280;23279;46.472;30.760;2023-09-19T06:31:04;77830.44;;;-146.33
37414;BMP280;23279;46.472;30.760;2023-09-19T06:33:38;77858.91;;;-146.33
37414;BMP280;23279;46.472;30.760;2023-09-19T06:36:05;77840.59;;;-146.33
37414;BMP280;23279;46.472;30.760;2023-09-19T06:38:31;77840.59;;;-146.33
37414;BMP280;23279;46.472;30.760;2023-09-19T06:40:58;77840.59;;;-146.33
37414;BMP280;23279;46.472;30.760;2023-09-19T06:43:24;77844.66;;;-146.33
37414;BMP280;23279;46.472;30.760;2023-09-19T06:45:49;77832.47;;;-146.33
37414;BMP280;23279;46.472;30.760;2023-09-19T06:48:17;77832.47;;;-146.33
37414;BMP280;23279;46.472;30.760;2023-09-19T06:50:43;77836.53;;;-146.33
37414;BMP280;23279;46.472;30.760;2023-09-19T06:53:10;77838.56;;;-146.33
37414;BMP280;23279;46.472;30.760;2023-09-19T06:55:35;77840.59;;;-146.33
37414;BMP280;23279;46.472;30.760;2023-09-19T06:58:02;77822.28;;;-146.33
37414;BMP280;23279;46.472;30.760;2023-09-19T07:00:28;77828.41;;;-146.33
37414;BMP280;23279;46.472;30.760;2023-09-19T07:03:04;77828.41;;;-146.33
37414;BMP280;23279;46.472;30.760;2023-09-19T07:05:34;77820.25;;;-146.33
37414;BMP280;23279;46.472;30.760;2023-09-19T07:08:03;77824.31;;;-146.33
37414;BMP280;23279;46.472;30.760;2023-09-19T07:10:29;77822.28;;;-146.33
37414;BMP280;23279;46.472;30.760;2023-09-19T07:13:00;77801.94;;;-146.33
37414;BMP280;23279;46.472;30.760;2023-09-19T07:15:27;77808.03;;;-146.33
37414;BMP280;23279;46.472;30.760;2023-09-19T07:17:54;77824.31;;;-146.33
37414;BMP280;23279;46.472;30.760;2023-09-19T07:20:21;77812.13;;;-146.33
37414;BMP280;23279;46.472;30.760;2023-09-19T07:22:48;77806.00;;;-146.33
37414;BMP280;23279;46.472;30.760;2023-09-19T07:25:16;77793.81;;;-146.33
37414;BMP280;23279;46.472;30.760;2023-09-19T07:27:41;77797.88;;;-146.33
37414;BMP280;23279;46.472;30.760;2023-09-19T07:30:07;77799.91;;;-146.33
37414;BMP280;23279;46.472;30.760;2023-09-19T07:32:33;77799.91;;;-146.33
37414;BMP280;23279;46.472;30.760;2023-09-19T07:35:02;77808.03;;;-146.33
37414;BMP280;23279;46.472;30.760;2023-09-19T07:37:29;77803.97;;;-146.33
37414;BMP280;23279;46.472;30.760;2023-09-19T07:39:56;77787.69;;;-146.33
37414;BMP280;23279;46.472;30.760;2023-09-19T07:42:22;77803.97;;;-146.33
37414;BMP280;23279;46.472;30.760;2023-09-19T07:44:47;77799.91;;;-146.33
37414;BMP280;23279;46.472;30.760;2023-09-19T07:47:16;77806.00;;;-146.33
37414;BMP280;23279;46.472;30.760;2023-09-19T07:49:41;77799.91;;;-146.33
37414;BMP280;23279;46.472;30.760;2023-09-19T07:52:08;77791.78;;;-146.33
37414;BMP280;23279;46.472;30.760;2023-09-19T07:54:35;77787.69;;;-146.33
37414;BMP280;23279;46.472;30.760;2023-09-19T07:57:03;77779.56;;;-146.33
37414;BMP280;23279;46.472;30.760;2023-09-19T07:59:30;77787.69;;;-146.33
37414;BMP280;23279;46.472;30.760;2023-09-19T08:01:56;77769.38;;;-146.33
37414;BMP280;23279;46.472;30.760;2023-09-19T08:04:21;77767.34;;;-146.33
37414;BMP280;23279;46.472;30.760;2023-09-19T08:06:47;77755.16;;;-146.33
37414;BMP280;23279;46.472;30.760;2023-09-19T08:09:12;77771.41;;;-146.33
37414;BMP280;23279;46.472;30.760;2023-09-19T08:11:41;77767.34;;;-146.33
37414;BMP280;23279;46.472;30.760;2023-09-19T08:14:06;77747.00;;;-146.33
37414;BMP280;23279;46.472;30.760;2023-09-19T08:16:33;77742.94;;;-146.33
37414;BMP280;23279;46.472;30.760;2023-09-19T08:18:59;77732.75;;;-146.33
37414;BMP280;23279;46.472;30.760;2023-09-19T08:21:24;77724.63;;;-146.33
37414;BMP280;23279;46.472;30.760;2023-09-19T08:23:51;77728.69;;;-146.33
37414;BMP280;23279;46.472;30.760;2023-09-19T08:26:16;77728.69;;;-146.33
37414;BMP280;23279;46.472;30.760;2023-09-19T08:28:42;77708.34;;;-146.33
37414;BMP280;23279;46.472;30.760;2023-09-19T08:31:08;77698.16;;;-146.33
37414;BMP280;23279;46.472;30.760;2023-09-19T08:33:35;77712.41;;;-146.33
37414;BMP280;23279;46.472;30.760;2023-09-19T08:36:01;77704.28;;;-146.33
37414;BMP280;23279;46.472;30.760;2023-09-19T08:38:26;77700.22;;;-146.33
37414;BMP280;23279;46.472;30.760;2023-09-19T08:40:59;77700.22;;;-146.33
37414;BMP280;23279;46.472;30.760;2023-09-19T08:43:25;77690.03;;;-146.33
37414;BMP280;23279;46.472;30.760;2023-09-19T08:45:58;77679.84;;;-146.33
37414;BMP280;23279;46.472;30.760;2023-09-19T08:48:29;77675.78;;;-146.33
37414;BMP280;23279;46.472;30.760;2023-09-19T08:51:03;77688.00;;;-146.33
37414;BMP280;23279;46.472;30.760;2023-09-19T08:56:14;77673.75;;;-146.33
37414;BMP280;23279;46.472;30.760;2023-09-19T09:01:14;77673.75;;;-146.33
37414;BMP280;23279;46.472;30.760;2023-09-19T09:03:41;77643.22;;;-146.33
37414;BMP280;23279;46.472;30.760;2023-09-19T09:06:09;77635.09;;;-146.33
37414;BMP280;23279;46.472;30.760;2023-09-19T09:08:40;77626.97;;;-146.33
37414;BMP280;23279;46.472;30.760;2023-09-19T09:11:07;77624.91;;;-146.33
37414;BMP280;23279;46.472;30.760;2023-09-19T09:13:35;77637.13;;;-146.33
37414;BMP280;23279;46.472;30.760;2023-09-19T09:16:01;77635.09;;;-146.33
37414;BMP280;23279;46.472;30.760;2023-09-19T09:18:28;77641.19;;;-146.33
37414;BMP280;23279;46.472;30.760;2023-09-19T09:20:55;77659.50;;;-146.33
37414;BMP280;23279;46.472;30.760;2023-09-19T09:23:21;77647.31;;;-146.33
37414;BMP280;23279;46.472;30.760;2023-09-19T09:25:53;77657.47;;;-146.33
37414;BMP280;23279;46.472;30.760;2023-09-19T09:28:24;77645.28;;;-146.33
37414;BMP280;23279;46.472;30.760;2023-09-19T09:30:50;77645.28;;;-146.33
37414;BMP280;23279;46.472;30.760;2023-09-19T09:33:16;77641.19;;;-146.33
37414;BMP280;23279;46.472;30.760;2023-09-19T09:35:49;77624.91;;;-146.33
37414;BMP280;23279;46.472;30.760;2023-09-19T09:38:18;77631.03;;;-146.33
37414;BMP280;23279;46.472;30.760;2023-09-19T09:40:51;77616.78;;;-146.33
37414;BMP280;23279;46.472;30.760;2023-09-19T09:43:38;77610.69;;;-146.33
37414;BMP280;23279;46.472;30.760;2023-09-19T09:46:16;77606.63;;;-146.33
37414;BMP280;23279;46.472;30.760;2023-09-19T09:51:38;77604.56;;;-146.33
37414;BMP280;23279;46.472;30.760;2023-09-19T09:57:26;77563.88;;;-146.33
37414;BMP280;23279;46.472;30.760;2023-09-19T09:59:52;77594.41;;;-146.33
37414;BMP280;23279;46.472;30.760;2023-09-19T10:02:30;77588.31;;;-146.33
37414;BMP280;23279;46.472;30.760;2023-09-19T10:07:47;77563.88;;;-146.33
37414;BMP280;23279;46.472;30.760;2023-09-19T10:13:05;77557.78;;;-146.33
37414;BMP280;23279;46.472;30.760;2023-09-19T10:15:33;77543.53;;;-146.33
37414;BMP280;23279;46.472;30.760;2023-09-19T10:18:04;77557.78;;;-146.33
37414;BMP280;23279;46.472;30.760;2023-09-19T10:20:30;77559.81;;;-146.33
37414;BMP280;23279;46.472;30.760;2023-09-19T10:23:02;77555.75;;;-146.33
37414;BMP280;23279;46.472;30.760;2023-09-19T10:25:29;77551.69;;;-146.33
37414;BMP280;23279;46.472;30.760;2023-09-19T10:27:57;77539.47;;;-146.33
37414;BMP280;23279;46.472;30.760;2023-09-19T10:30:24;77527.25;;;-146.33
37414;BMP280;23279;46.472;30.760;2023-09-19T10:33:03;77527.25;;;-146.33
37414;BMP280;23279;46.472;30.760;2023-09-19T10:35:29;77506.91;;;-146.33
37414;BMP280;23279;46.472;30.760;2023-09-19T10:37:57;77529.28;;;-146.33
37414;BMP280;23279;46.472;30.760;2023-09-19T10:40:24;77519.13;;;-146.33
37414;BMP280;23279;46.472;30.760;2023-09-19T10:43:00;77527.25;;;-146.33
37414;BMP280;23279;46.472;30.760;2023-09-19T10:45:28;77525.22;;;-146.33
37414;BMP280;23279;46.472;30.760;2023-09-19T10:47:57;77519.13;;;-146.33
37414;BMP280;23279;46.472;30.760;2023-09-19T10:50:23;77523.19;;;-146.33
37414;BMP280;23279;46.472;30.760;2023-09-19T10:52:49;77508.94;;;-146.33
37414;BMP280;23279;46.472;30.760;2023-09-19T10:55:21;77508.94;;;-146.33
37414;BMP280;23279;46.472;30.760;2023-09-19T10:57:49;77500.81;;;-146.33
37414;BMP280;23279;46.472;30.760;2023-09-19T11:00:14;77502.84;;;-146.33
37414;BMP280;23279;46.472;30.760;2023-09-19T11:08:55;77494.72;;;-146.33
37414;BMP280;23279;46.472;30.760;2023-09-19T11:22:23;77515.06;;;-146.33
37414;BMP280;23279;46.472;30.760;2023-09-19T11:24:51;77504.88;;;-146.33
37414;BMP280;23279;46.472;30.760;2023-09-19T11:27:17;77531.34;;;-146.33
37414;BMP280;23279;46.472;30.760;2023-09-19T11:29:44;77537.44;;;-146.33
37414;BMP280;23279;46.472;30.760;2023-09-19T11:32:10;77525.22;;;-146.33
37414;BMP280;23279;46.472;30.760;2023-09-19T11:37:01;77519.13;;;-146.33
37414;BMP280;23279;46.472;30.760;2023-09-19T11:39:30;77506.91;;;-146.33
37414;BMP280;23279;46.472;30.760;2023-09-19T11:41:55;77510.97;;;-146.33
37414;BMP280;23279;46.472;30.760;2023-09-19T11:46:52;77498.78;;;-146.33
37414;BMP280;23279;46.472;30.760;2023-09-19T11:49:19;77498.78;;;-146.33
37414;BMP280;23279;46.472;30.760;2023-09-19T11:51:50;77484.53;;;-146.33
37414;BMP280;23279;46.472;30.760;2023-09-19T11:54:19;77486.56;;;-146.33
37414;BMP280;23279;46.472;30.760;2023-09-19T11:56:51;77519.13;;;-146.33
37414;BMP280;23279;46.472;30.760;2023-09-19T11:59:20;77502.84;;;-146.33
37414;BMP280;23279;46.472;30.760;2023-09-19T12:02:05;77498.78;;;-146.33
37414;BMP280;23279;46.472;30.760;2023-09-19T12:04:41;77496.75;;;-146.33
37414;BMP280;23279;46.472;30.760;2023-09-19T12:07:09;77490.63;;;-146.33
37414;BMP280;23279;46.472;30.760;2023-09-19T12:09:44;77508.94;;;-146.33
37414;BMP280;23279;46.472;30.760;2023-09-19T12:12:26;77466.22;;;-146.33
37414;BMP280;23279;46.472;30.760;2023-09-19T12:14:56;77515.06;;;-146.33
37414;BMP280;23279;46.472;30.760;2023-09-19T12:17:37;77490.63;;;-146.33
37414;BMP280;23279;46.472;30.760;2023-09-19T12:20:05;77492.69;;;-146.33
37414;BMP280;23279;46.472;30.760;2023-09-19T12:22:41;77480.47;;;-146.33
37414;BMP280;23279;46.472;30.760;2023-09-19T12:25:09;77476.41;;;-146.33
37414;BMP280;23279;46.472;30.760;2023-09-19T12:27:47;77488.59;;;-146.33
37414;BMP280;23279;46.472;30.760;2023-09-19T12:30:16;77468.25;;;-146.33
37414;BMP280;23279;46.472;30.760;2023-09-19T12:32:43;77458.09;;;-146.33
37414;BMP280;23279;46.472;30.760;2023-09-19T12:35:09;77525.22;;;-146.33
37414;BMP280;23279;46.472;30.760;2023-09-19T12:37:43;77474.38;;;-146.33
37414;BMP280;23279;46.472;30.760;2023-09-19T12:40:11;77502.84;;;-146.33
37414;BMP280;23279;46.472;30.760;2023-09-19T12:42:48;77486.56;;;-146.33
37414;BMP280;23279;46.472;30.760;2023-09-19T12:45:14;77535.41;;;-146.33
37414;BMP280;23279;46.472;30.760;2023-09-19T12:51:09;77510.97;;;-146.33
37414;BMP280;23279;46.472;30.760;2023-09-19T12:53:41;77484.53;;;-146.33
37414;BMP280;23279;46.472;30.760;2023-09-19T12:56:13;77474.38;;;-146.33
37414;BMP280;23279;46.472;30.760;2023-09-19T12:58:56;77515.06;;;-146.33
37414;BMP280;23279;46.472;30.760;2023-09-19T13:01:25;77559.81;;;-146.33
37414;BMP280;23279;46.472;30.760;2023-09-19T13:04:21;77535.41;;;-146.33
37414;BMP280;23279;46.472;30.760;2023-09-19T13:06:53;77502.84;;;-146.33
37414;BMP280;23279;46.472;30.760;2023-09-19T13:09:22;77510.97;;;-146.33
37414;BMP280;23279;46.472;30.760;2023-09-19T13:11:53;77535.41;;;-146.33
37414;BMP280;23279;46.472;30.760;2023-09-19T13:14:24;77531.34;;;-146.33
37414;BMP280;23279;46.472;30.760;2023-09-19T13:22:05;77521.16;;;-146.33
37414;BMP280;23279;46.472;30.760;2023-09-19T13:24:33;77521.16;;;-146.33
37414;BMP280;23279;46.472;30.760;2023-09-19T13:27:00;77490.63;;;-146.33
37414;BMP280;23279;46.472;30.760;2023-09-19T13:29:25;77508.94;;;-146.33
37414;BMP280;23279;46.472;30.760;2023-09-19T13:31:52;77492.69;;;-146.33
37414;BMP280;23279;46.472;30.760;2023-09-19T13:34:19;77510.97;;;-146.33
37414;BMP280;23279;46.472;30.760;2023-09-19T13:36:45;77561.84;;;-146.33
37414;BMP280;23279;46.472;30.760;2023-09-19T13:39:13;77559.81;;;-146.33
37414;BMP280;23279;46.472;30.760;2023-09-19T13:41:40;77596.44;;;-146.33
37414;BMP280;23279;46.472;30.760;2023-09-19T13:44:07;77567.94;;;-146.33
37414;BMP280;23279;46.472;30.760;2023-09-19T13:46:33;77547.59;;;-146.33
37414;BMP280;23279;46.472;30.760;2023-09-19T13:49:01;77574.06;;;-146.33
37414;BMP280;23279;46.472;30.760;2023-09-19T13:51:29;77551.69;;;-146.33
37414;BMP280;23279;46.472;30.760;2023-09-19T13:53:55;77543.53;;;-146.33
37414;BMP280;23279;46.472;30.760;2023-09-19T13:56:20;77588.31;;;-146.33
37414;BMP280;23279;46.472;30.760;2023-09-19T13:58:47;77572.03;;;-146.33
37414;BMP280;23279;46.472;30.760;2023-09-19T14:01:12;77604.56;;;-146.33
37414;BMP280;23279;46.472;30.760;2023-09-19T14:03:41;77602.53;;;-146.33
37414;BMP280;23279;46.472;30.760;2023-09-19T14:06:11;77633.06;;;-146.33
37414;BMP280;23279;46.472;30.760;2023-09-19T14:08:37;77673.75;;;-146.33
37414;BMP280;23279;46.472;30.760;2023-09-19T14:11:07;77694.09;;;-146.33
37414;BMP280;23279;46.472;30.760;2023-09-19T14:13:32;77710.38;;;-146.33
37414;BMP280;23279;46.472;30.760;2023-09-19T14:16:06;77683.94;;;-146.33
37414;BMP280;23279;46.472;30.760;2023-09-19T14:18:32;77712.41;;;-146.33
37414;BMP280;23279;46.472;30.760;2023-09-19T14:20:57;77698.16;;;-146.33
37414;BMP280;23279;46.472;30.760;2023-09-19T14:23:23;77675.78;;;-146.33
37414;BMP280;23279;46.472;30.760;2023-09-19T14:25:50;77685.97;;;-146.33
37414;BMP280;23279;46.472;30.760;2023-09-19T14:28:15;77681.88;;;-146.33
37414;BMP280;23279;46.472;30.760;2023-09-19T14:30:40;77653.41;;;-146.33
37414;BMP280;23279;46.472;30.760;2023-09-19T14:33:06;77702.25;;;-146.33